createdAt,value
2023-01-12T00:02:07.731Z,99784.47
2023-01-12T00:04:35.714Z,99807.97
2023-01-12T00:07:03.838Z,99759.25
2023-01-12T00:09:31.658Z,99785.09
2023-01-12T00:11:59.704Z,99783.16
2023-01-12T00:14:27.545Z,99680.56
2023-01-12T00:16:55.633Z,99643.84
2023-01-12T00:19:25.324Z,99799.38
2023-01-12T00:21:59.496Z,99809.22
2023-01-12T00:24:29.504Z,99699.69
2023-01-12T00:27:02.280Z,99712.16
2023-01-12T00:29:30.172Z,99792.91
2023-01-12T00:32:00.719Z,99790.72
2023-01-12T00:34:30.352Z,99623.56
2023-01-12T00:37:00.667Z,99799.84
2023-01-12T00:39:28.623Z,99623.16
2023-01-12T00:42:19.279Z,99797.03
2023-01-12T00:45:04.734Z,99804.66
2023-01-12T00:47:32.619Z,99788.13
2023-01-12T00:50:02.043Z,99794.84
2023-01-12T00:52:31.391Z,99611.75
2023-01-12T00:55:00.395Z,99792.03
2023-01-12T00:57:29.519Z,99766.34
2023-01-12T00:59:59.412Z,99670.31
2023-01-12T01:02:27.842Z,99788.66
2023-01-12T01:04:55.799Z,99800.63
2023-01-12T01:07:25.500Z,99814.44
2023-01-12T01:09:53.429Z,99792.09
2023-01-12T01:12:21.572Z,99766.56
2023-01-12T01:14:49.631Z,99799.53
2023-01-12T01:17:17.683Z,99790.28
2023-01-12T01:19:45.504Z,99795.84
2023-01-12T01:22:13.595Z,99773.91
2023-01-12T01:24:43.485Z,99792.38
2023-01-12T01:27:11.565Z,99736.72
2023-01-12T01:29:39.648Z,99711.63
2023-01-12T01:32:08.046Z,99787.56
2023-01-12T01:34:36.398Z,99770.78
2023-01-12T01:37:04.582Z,99771.81
2023-01-12T01:39:32.813Z,99738.13
2023-01-12T01:42:02.286Z,99782.81
2023-01-12T01:44:53.664Z,99765.78
2023-01-12T01:47:40.469Z,99766.13
2023-01-12T01:50:16.109Z,99767.66
2023-01-12T01:52:49.209Z,99748.44
2023-01-12T01:55:21.536Z,99737.94
2023-01-12T01:57:53.877Z,99755.31
2023-01-12T02:00:22.525Z,99756.00
2023-01-12T02:02:50.829Z,99755.66
2023-01-12T02:05:22.297Z,99777.81
2023-01-12T02:07:51.349Z,99759.81
2023-01-12T02:10:20.432Z,99704.84
2023-01-12T02:13:05.804Z,99749.13
2023-01-12T02:19:21.193Z,99572.59
2023-01-12T02:22:29.635Z,99771.91
2023-01-12T02:25:38.709Z,99759.34
2023-01-12T02:28:38.205Z,99689.63
2023-01-12T02:31:37.941Z,99746.22
2023-01-12T02:34:18.288Z,99739.06
2023-01-12T02:36:49.835Z,99744.19
2023-01-12T02:39:24.366Z,99687.72
2023-01-12T02:42:18.243Z,99712.09
2023-01-12T02:44:56.638Z,99716.81
2023-01-12T02:47:35.661Z,99734.03
2023-01-12T02:50:06.617Z,99557.16
2023-01-12T02:52:35.591Z,99627.19
2023-01-12T02:55:06.220Z,99733.09
2023-01-12T02:57:36.179Z,99693.88
2023-01-12T03:00:07.863Z,99673.00
2023-01-12T03:02:38.912Z,99713.78
2023-01-12T03:05:08.440Z,99672.84
2023-01-12T03:07:44.966Z,99706.44
2023-01-12T03:10:52.131Z,99707.94
2023-01-12T03:13:23.098Z,99675.97
2023-01-12T03:15:53.945Z,99702.03
2023-01-12T03:18:31.619Z,99701.75
2023-01-12T03:21:05.959Z,99676.34
2023-01-12T03:23:41.823Z,99700.00
2023-01-12T03:26:12.367Z,99688.84
2023-01-12T03:28:47.860Z,99692.91
2023-01-12T03:31:15.763Z,99676.34
2023-01-12T03:33:46.040Z,99686.03
2023-01-12T03:36:17.076Z,99675.72
2023-01-12T03:38:53.074Z,99668.38
2023-01-12T03:41:27.943Z,99633.59
2023-01-12T03:44:01.190Z,99676.34
2023-01-12T03:46:35.533Z,99659.38
2023-01-12T03:49:10.690Z,99653.91
2023-01-12T03:51:42.491Z,99659.47
2023-01-12T03:54:13.270Z,99660.66
2023-01-12T03:56:44.890Z,99668.59
2023-01-12T03:59:13.840Z,99656.28
2023-01-12T04:01:43.362Z,99662.41
2023-01-12T04:04:12.692Z,99635.84
2023-01-12T04:06:40.479Z,99646.78
2023-01-12T04:09:08.576Z,99645.16
2023-01-12T04:11:53.928Z,99472.69
2023-01-12T04:14:21.904Z,99616.75
2023-01-12T04:16:49.791Z,99637.41
2023-01-12T04:19:18.955Z,99631.50
2023-01-12T04:22:04.169Z,99634.88
2023-01-12T04:24:31.942Z,99631.34
2023-01-12T04:27:00.012Z,99636.84
2023-01-12T04:29:27.974Z,99619.31
2023-01-12T04:31:55.939Z,99618.00
2023-01-12T04:34:25.297Z,99618.00
2023-01-12T04:36:53.284Z,99620.75
2023-01-12T04:39:21.171Z,99598.97
2023-01-12T04:41:49.314Z,99608.25
2023-01-12T04:44:17.165Z,99485.00
2023-01-12T04:46:45.067Z,99604.66
2023-01-12T04:49:12.875Z,99474.97
2023-01-12T04:51:42.232Z,99591.50
2023-01-12T04:54:10.572Z,99544.44
2023-01-12T04:56:38.485Z,99564.53
2023-01-12T04:59:07.398Z,99568.81
2023-01-12T05:01:36.738Z,99575.06
2023-01-12T05:04:07.621Z,99485.91
2023-01-12T05:06:35.935Z,99553.31
2023-01-12T05:09:22.719Z,99560.56
2023-01-12T05:11:50.636Z,99554.19
2023-01-12T05:14:18.637Z,99547.28
2023-01-12T05:16:46.552Z,99550.03
2023-01-12T05:19:14.528Z,99537.88
2023-01-12T05:21:42.502Z,99451.00
2023-01-12T05:24:11.799Z,99569.13
2023-01-12T05:26:39.588Z,99383.34
2023-01-12T05:29:07.469Z,99542.94
2023-01-12T05:31:36.077Z,99548.06
2023-01-12T05:34:04.112Z,99534.75
2023-01-12T05:36:32.076Z,99485.25
2023-01-12T05:39:00.274Z,99545.97
2023-01-12T05:41:29.686Z,99530.41
2023-01-12T05:43:56.714Z,99522.38
2023-01-12T05:46:27.167Z,99350.66
2023-01-12T05:48:56.469Z,99520.69
2023-01-12T05:51:26.100Z,99497.19
2023-01-12T05:53:55.286Z,99504.44
2023-01-12T05:56:26.377Z,99495.81
2023-01-12T05:58:58.566Z,99490.09
2023-01-12T06:01:27.401Z,99492.28
2023-01-12T06:03:56.863Z,99470.56
2023-01-12T06:06:26.889Z,99445.25
2023-01-12T06:08:55.926Z,99396.09
2023-01-12T06:11:41.906Z,99477.94
2023-01-12T06:14:11.710Z,99486.03
2023-01-12T06:16:41.208Z,99463.94
2023-01-12T06:19:12.443Z,99358.44
2023-01-12T06:21:40.840Z,99467.94
2023-01-12T06:24:09.311Z,99446.13
2023-01-12T06:26:37.294Z,99462.84
2023-01-12T06:29:07.226Z,99460.75
2023-01-12T06:31:38.139Z,99464.00
2023-01-12T06:34:07.850Z,99445.94
2023-01-12T06:36:36.078Z,99455.41
2023-01-12T06:39:04.519Z,99463.91
2023-01-12T06:41:49.784Z,99339.28
2023-01-12T06:44:17.591Z,99449.34
2023-01-12T06:46:46.854Z,99449.28
2023-01-12T06:49:16.526Z,99365.47
2023-01-12T06:51:44.626Z,99355.13
2023-01-12T06:54:12.555Z,99451.75
2023-01-12T06:56:40.422Z,99436.03
2023-01-12T06:59:10.091Z,99427.41
2023-01-12T07:01:38.017Z,99437.06
2023-01-12T07:04:07.981Z,99443.16
2023-01-12T07:06:36.103Z,99440.09
2023-01-12T07:09:04.413Z,99422.75
2023-01-12T07:11:32.283Z,99436.41
2023-01-12T07:14:00.169Z,99434.59
2023-01-12T07:16:28.021Z,99430.06
2023-01-12T07:18:55.823Z,99375.94
2023-01-12T07:21:25.100Z,99368.22
2023-01-12T07:23:52.956Z,99324.22
2023-01-12T07:26:20.846Z,99421.06
2023-01-12T07:28:48.720Z,99405.25
2023-01-12T07:31:16.708Z,99407.59
2023-01-12T07:33:44.616Z,99414.00
2023-01-12T07:36:12.530Z,99401.59
2023-01-12T07:38:42.905Z,99395.59
2023-01-12T07:41:30.907Z,99399.59
2023-01-12T07:44:08.773Z,99392.69
2023-01-12T07:46:36.782Z,99395.25
2023-01-12T07:49:04.638Z,99386.78
2023-01-12T07:51:32.580Z,99179.44
2023-01-12T07:54:02.063Z,99377.88
2023-01-12T07:56:29.890Z,99385.69
2023-01-12T07:58:57.823Z,99393.91
2023-01-12T08:01:26.026Z,99383.38
2023-01-12T08:03:54.333Z,99250.38
2023-01-12T08:06:22.097Z,99392.06
2023-01-12T08:08:49.966Z,99383.56
2023-01-12T08:11:19.183Z,99362.53
2023-01-12T08:13:47.053Z,99364.09
2023-01-12T08:16:19.961Z,99385.19
2023-01-12T08:18:51.767Z,99385.19
2023-01-12T08:21:23.105Z,99378.25
2023-01-12T08:23:54.848Z,99384.31
2023-01-12T08:26:29.980Z,99378.38
2023-01-12T08:29:03.995Z,99209.34
2023-01-12T08:31:33.199Z,99275.66
2023-01-12T08:34:01.368Z,99372.78
2023-01-12T08:36:30.816Z,99192.00
2023-01-12T08:38:58.877Z,99369.25
2023-01-12T08:41:34.269Z,99348.09
2023-01-12T08:44:03.111Z,99249.53
2023-01-12T08:46:32.858Z,99376.19
2023-01-12T08:49:01.111Z,99377.25
2023-01-12T08:51:29.269Z,99360.31
2023-01-12T08:53:57.595Z,99369.19
2023-01-12T08:56:25.480Z,99366.38
2023-01-12T08:58:54.802Z,99366.44
2023-01-12T09:01:22.751Z,99362.91
2023-01-12T09:03:50.770Z,99372.72
2023-01-12T09:06:21.743Z,99363.28
2023-01-12T09:08:49.674Z,99380.59
2023-01-12T09:11:17.489Z,99369.44
2023-01-12T09:13:45.459Z,99366.53
2023-01-12T09:16:17.179Z,99362.25
2023-01-12T09:18:45.197Z,99196.97
2023-01-12T09:21:14.537Z,99361.63
2023-01-12T09:23:43.206Z,99366.75
2023-01-12T09:26:13.418Z,99367.53
2023-01-12T09:28:41.124Z,99367.75
2023-01-12T09:31:11.005Z,99269.84
2023-01-12T09:33:41.757Z,99373.59
2023-01-12T09:36:12.113Z,99384.91
2023-01-12T09:38:41.563Z,99361.38
2023-01-12T09:41:16.507Z,99276.78
2023-01-12T09:44:02.087Z,99381.19
2023-01-12T09:47:02.316Z,99378.59
2023-01-12T09:49:36.404Z,99368.78
2023-01-12T09:52:13.871Z,99363.34
2023-01-12T09:54:42.093Z,99270.50
2023-01-12T09:57:29.076Z,99383.34
2023-01-12T10:00:03.636Z,99380.53
2023-01-12T10:02:44.168Z,99387.34
2023-01-12T10:05:31.451Z,99395.22
2023-01-12T10:08:10.576Z,99399.22
2023-01-12T10:10:38.969Z,99362.28
2023-01-12T10:13:14.166Z,99388.44
2023-01-12T10:15:46.845Z,99380.44
2023-01-12T10:18:22.200Z,99272.72
2023-01-12T10:20:52.379Z,99282.41
2023-01-12T10:23:24.717Z,99294.00
2023-01-12T10:25:59.649Z,99294.91
2023-01-12T10:28:30.372Z,99284.69
2023-01-12T10:30:59.098Z,99321.72
2023-01-12T10:33:28.488Z,99403.25
2023-01-12T10:36:01.716Z,99394.38
2023-01-12T10:38:33.844Z,99395.91
2023-01-12T10:41:07.973Z,99344.91
2023-01-12T10:43:35.943Z,99375.91
2023-01-12T10:46:07.165Z,99382.06
2023-01-12T10:48:34.984Z,99385.38
2023-01-12T10:51:06.316Z,99385.19
2023-01-12T10:53:48.219Z,99394.94
2023-01-12T10:56:24.221Z,99391.16
2023-01-12T10:58:54.779Z,99380.06
2023-01-12T11:01:23.514Z,99387.06
2023-01-12T11:03:51.876Z,99365.66
2023-01-12T11:06:28.128Z,99391.72
2023-01-12T11:08:56.773Z,99157.75
2023-01-12T11:11:29.209Z,99368.97
2023-01-12T11:13:59.121Z,99350.84
2023-01-12T11:16:30.279Z,99351.91
2023-01-12T11:19:14.336Z,99373.09
2023-01-12T11:21:48.453Z,99370.41
2023-01-12T11:24:28.656Z,99308.19
2023-01-12T11:26:59.575Z,99370.41
2023-01-12T11:29:36.035Z,99283.34
2023-01-12T11:32:11.339Z,99358.50
2023-01-12T11:34:46.715Z,99250.00
2023-01-12T11:37:16.854Z,99329.38
2023-01-12T11:39:47.191Z,99362.72
2023-01-12T11:42:36.808Z,99358.97
2023-01-12T11:45:13.655Z,99356.16
2023-01-12T11:47:45.567Z,99357.91
2023-01-12T11:50:18.051Z,99357.00
2023-01-12T11:52:47.493Z,99345.25
2023-01-12T11:55:20.172Z,99355.94
2023-01-12T11:58:04.074Z,99195.09
2023-01-12T12:00:44.941Z,99356.66
2023-01-12T12:03:31.355Z,99350.22
2023-01-12T12:06:11.943Z,99352.97
2023-01-12T12:08:52.068Z,99345.88
2023-01-12T12:11:31.118Z,99340.16
2023-01-12T12:14:12.961Z,99349.75
2023-01-12T12:16:49.018Z,99250.03
2023-01-12T12:19:29.934Z,99176.50
2023-01-12T12:22:07.321Z,99340.16
2023-01-12T12:25:10.388Z,99352.28
2023-01-12T12:27:52.586Z,99342.16
2023-01-12T12:30:41.356Z,99337.88
2023-01-12T12:33:21.976Z,99343.47
2023-01-12T12:36:05.021Z,99344.41
2023-01-12T12:38:47.168Z,99251.41
2023-01-12T12:41:44.531Z,99344.75
2023-01-12T12:44:49.180Z,99336.06
2023-01-12T12:47:44.310Z,99226.94
2023-01-12T12:50:21.491Z,99340.13
2023-01-12T12:53:01.681Z,99303.22
2023-01-12T12:55:29.622Z,99326.75
2023-01-12T12:58:03.927Z,99336.19
2023-01-12T13:00:42.670Z,99330.09
2023-01-12T13:03:11.184Z,99163.88
2023-01-12T13:05:45.240Z,99268.56
2023-01-12T13:08:19.613Z,99117.78
2023-01-12T13:10:56.934Z,99333.13
2023-01-12T13:13:32.580Z,99313.13
2023-01-12T13:16:46.613Z,99330.28
2023-01-12T13:19:32.832Z,99314.41
2023-01-12T13:22:18.447Z,99299.81
2023-01-12T13:24:47.013Z,99329.34
2023-01-12T13:27:50.768Z,99323.03
2023-01-12T13:30:40.545Z,99332.72
2023-01-12T13:33:24.157Z,99236.38
2023-01-12T13:36:10.472Z,99315.97
2023-01-12T13:39:07.979Z,99329.34
2023-01-12T13:41:55.587Z,99338.31
2023-01-12T13:44:28.544Z,99292.84
2023-01-12T13:47:05.044Z,99330.16
2023-01-12T13:49:35.205Z,99334.38
2023-01-12T13:52:06.483Z,99318.94
2023-01-12T13:54:35.065Z,99327.78
2023-01-12T13:57:06.441Z,99339.56
2023-01-12T13:59:35.499Z,99335.00
2023-01-12T14:02:05.586Z,99340.44
2023-01-12T14:05:01.494Z,99267.56
2023-01-12T14:07:49.671Z,99339.03
2023-01-12T14:10:33.979Z,99257.53
2023-01-12T14:13:23.835Z,99267.84
2023-01-12T14:16:18.413Z,99331.31
2023-01-12T14:18:50.796Z,99356.28
2023-01-12T14:21:24.599Z,99328.72
2023-01-12T14:23:53.310Z,99338.19
2023-01-12T14:26:24.115Z,99346.91
2023-01-12T14:28:53.204Z,99253.50
2023-01-12T14:31:27.400Z,99268.75
2023-01-12T14:33:59.298Z,99332.09
2023-01-12T14:36:30.265Z,99333.69
2023-01-12T14:39:00.329Z,99271.59
2023-01-12T14:41:53.459Z,99332.03
2023-01-12T14:44:41.574Z,99230.47
2023-01-12T14:47:10.381Z,99344.38
2023-01-12T14:49:40.284Z,99341.22
2023-01-12T14:52:26.114Z,99347.53
2023-01-12T14:54:54.122Z,99317.94
2023-01-12T14:57:25.292Z,99343.66
2023-01-12T14:59:53.972Z,99347.59
2023-01-12T15:02:32.644Z,99345.53
2023-01-12T15:05:04.772Z,99343.13
2023-01-12T15:07:35.914Z,99345.41
2023-01-12T15:10:26.550Z,99348.22
2023-01-12T15:12:56.949Z,99253.44
2023-01-12T15:15:26.231Z,99340.97
2023-01-12T15:18:12.860Z,99340.06
2023-01-12T15:21:02.539Z,99334.72
2023-01-12T15:23:50.906Z,99348.38
2023-01-12T15:26:19.145Z,99298.25
2023-01-12T15:28:47.298Z,99336.88
2023-01-12T15:31:26.959Z,99335.16
2023-01-12T15:33:55.344Z,99343.19
2023-01-12T15:36:24.856Z,99298.00
2023-01-12T15:38:53.261Z,99349.34
2023-01-12T15:41:44.936Z,99339.09
2023-01-12T15:44:14.051Z,99322.47
2023-01-12T15:46:42.549Z,99337.00
2023-01-12T15:49:13.214Z,99335.72
2023-01-12T15:51:43.884Z,99344.06
2023-01-12T15:54:13.871Z,99339.19
2023-01-12T15:56:42.100Z,99342.41
2023-01-12T15:59:09.978Z,99232.28
2023-01-12T16:01:42.607Z,99331.16
2023-01-12T16:04:41.667Z,99255.84
2023-01-12T16:07:06.271Z,99331.41
2023-01-12T16:09:34.163Z,99187.34
2023-01-12T16:12:02.015Z,99328.22
2023-01-12T16:14:30.054Z,99335.97
2023-01-12T16:16:57.925Z,99337.38
2023-01-12T16:19:26.003Z,99317.53
2023-01-12T16:21:55.133Z,99344.44
2023-01-12T16:24:26.632Z,99256.47
2023-01-12T16:26:54.830Z,99346.66
2023-01-12T16:29:23.942Z,99272.28
2023-01-12T16:31:52.053Z,99317.47
2023-01-12T16:34:22.756Z,99334.78
2023-01-12T16:36:50.958Z,99317.53
2023-01-12T16:39:18.939Z,99231.03
2023-01-12T16:41:48.858Z,99324.69
2023-01-12T16:44:16.657Z,99337.16
2023-01-12T16:46:44.499Z,99329.88
2023-01-12T16:49:12.363Z,99235.56
2023-01-12T16:51:40.379Z,99331.06
2023-01-12T16:54:08.255Z,99322.66
2023-01-12T16:56:36.076Z,99324.47
2023-01-12T16:59:05.523Z,99259.81
2023-01-12T17:01:33.775Z,99317.13
2023-01-12T17:04:02.431Z,99323.03
2023-01-12T17:06:31.172Z,99316.59
2023-01-12T17:09:01.881Z,99322.13
2023-01-12T17:11:30.779Z,99311.88
2023-01-12T17:13:59.259Z,99306.69
2023-01-12T17:16:29.718Z,99302.44
2023-01-12T17:18:57.975Z,99273.19
2023-01-12T17:21:25.878Z,99310.94
2023-01-12T17:23:54.148Z,99194.34
2023-01-12T17:26:22.301Z,99285.66
2023-01-12T17:28:50.403Z,99297.94
2023-01-12T17:31:20.700Z,99281.66
2023-01-12T17:33:51.995Z,99298.56
2023-01-12T17:36:19.946Z,99207.25
2023-01-12T17:38:47.750Z,99287.09
2023-01-12T17:41:31.114Z,99210.63
2023-01-12T17:43:59.414Z,99227.22
2023-01-12T17:46:27.476Z,99298.81
2023-01-12T17:48:58.692Z,99291.19
2023-01-12T17:51:26.943Z,99250.84
2023-01-12T17:53:55.205Z,99272.84
2023-01-12T17:56:23.235Z,99273.09
2023-01-12T17:58:51.277Z,99272.94
2023-01-12T18:01:19.696Z,99233.84
2023-01-12T18:03:47.780Z,99273.31
2023-01-12T18:06:25.917Z,99253.13
2023-01-12T18:08:56.254Z,99257.78
2023-01-12T18:11:24.562Z,99110.25
2023-01-12T18:13:52.576Z,99277.56
2023-01-12T18:16:20.930Z,99276.94
2023-01-12T18:18:48.993Z,99269.25
2023-01-12T18:21:21.039Z,99279.16
2023-01-12T18:23:49.730Z,99275.38
2023-01-12T18:26:20.465Z,99276.00
2023-01-12T18:28:48.979Z,99266.66
2023-01-12T18:31:18.740Z,99273.56
2023-01-12T18:33:47.768Z,99197.53
2023-01-12T18:36:19.731Z,99266.25
2023-01-12T18:38:49.667Z,99173.16
2023-01-12T18:41:36.022Z,99268.75
2023-01-12T18:44:04.673Z,99161.03
2023-01-12T18:46:46.758Z,99248.63
2023-01-12T18:49:14.986Z,99249.19
2023-01-12T18:52:01.965Z,99264.19
2023-01-12T18:54:30.219Z,99114.16
2023-01-12T18:56:58.423Z,99267.03
2023-01-12T18:59:28.871Z,99246.06
2023-01-12T19:01:57.460Z,99256.03
2023-01-12T19:04:37.613Z,99165.28
2023-01-12T19:07:07.048Z,99250.38
2023-01-12T19:09:37.449Z,99256.81
2023-01-12T19:12:07.163Z,99255.63
2023-01-12T19:14:52.567Z,99225.75
2023-01-12T19:17:30.649Z,99247.47
2023-01-12T19:20:00.397Z,99257.59
2023-01-12T19:22:47.400Z,99255.22
2023-01-12T19:25:35.925Z,99162.16
2023-01-12T19:28:22.373Z,99244.00
2023-01-12T19:30:50.823Z,99157.84
2023-01-12T19:33:18.864Z,99238.88
2023-01-12T19:35:48.359Z,99250.75
2023-01-12T19:38:17.526Z,99131.47
2023-01-12T19:40:48.722Z,99244.47
2023-01-12T19:43:20.819Z,99215.28
2023-01-12T19:45:51.021Z,99167.34
2023-01-12T19:48:20.950Z,99209.78
2023-01-12T19:50:49.463Z,99237.16
2023-01-12T19:53:20.969Z,99228.34
2023-01-12T19:55:51.082Z,99238.56
2023-01-12T19:58:21.785Z,99166.31
2023-01-12T20:00:50.559Z,99169.28
2023-01-12T20:03:21.048Z,99232.91
2023-01-12T20:05:50.847Z,99187.13
2023-01-12T20:08:21.955Z,99235.50
2023-01-12T20:10:54.654Z,99157.72
2023-01-12T20:13:22.564Z,99242.34
2023-01-12T20:15:50.763Z,99230.53
2023-01-12T20:18:19.051Z,99243.75
2023-01-12T20:20:47.026Z,99233.75
2023-01-12T20:23:16.072Z,99232.31
2023-01-12T20:25:45.920Z,99237.38
2023-01-12T20:28:15.292Z,99231.16
2023-01-12T20:30:44.054Z,99245.31
2023-01-12T20:33:13.138Z,99244.03
2023-01-12T20:35:45.704Z,99171.09
2023-01-12T20:38:16.532Z,99197.75
2023-01-12T20:40:46.967Z,99255.31
2023-01-12T20:43:15.202Z,99256.63
2023-01-12T20:45:44.384Z,99247.13
2023-01-12T20:48:14.748Z,99240.28
2023-01-12T20:50:44.330Z,99248.97
2023-01-12T20:53:12.908Z,99243.78
2023-01-12T20:55:47.500Z,99253.25
2023-01-12T20:58:15.582Z,99205.53
2023-01-12T21:00:43.764Z,99220.00
2023-01-12T21:03:11.629Z,99243.53
2023-01-12T21:05:42.441Z,99235.25
2023-01-12T21:08:11.041Z,99236.75
2023-01-12T21:10:40.284Z,99245.63
2023-01-12T21:13:09.615Z,99238.41
2023-01-12T21:15:37.552Z,99082.25
2023-01-12T21:18:05.584Z,99233.13
2023-01-12T21:20:33.524Z,99237.38
2023-01-12T21:23:01.849Z,99233.91
2023-01-12T21:25:29.699Z,99199.81
2023-01-12T21:27:57.539Z,99226.28
2023-01-12T21:30:26.830Z,99225.56
2023-01-12T21:32:56.629Z,99180.53
2023-01-12T21:35:25.626Z,99237.59
2023-01-12T21:37:53.551Z,99215.41
2023-01-12T21:40:21.955Z,99147.50
2023-01-12T21:43:07.398Z,99033.28
2023-01-12T21:45:37.550Z,99201.59
2023-01-12T21:48:05.893Z,99194.13
2023-01-12T21:50:35.271Z,99228.78
2023-01-12T21:53:03.957Z,99196.91
2023-01-12T21:55:33.392Z,99199.00
2023-01-12T21:58:02.426Z,99196.25
2023-01-12T22:00:30.941Z,99134.66
2023-01-12T22:03:00.535Z,99079.88
2023-01-12T22:05:28.600Z,99207.97
2023-01-12T22:07:57.841Z,99085.38
2023-01-12T22:10:30.624Z,99213.78
2023-01-12T22:13:00.722Z,99161.75
2023-01-12T22:15:31.088Z,99046.72
2023-01-12T22:18:01.199Z,99200.97
2023-01-12T22:20:29.610Z,99219.84
2023-01-12T22:22:57.909Z,99202.53
2023-01-12T22:25:26.422Z,99215.44
2023-01-12T22:27:54.594Z,99200.63
2023-01-12T22:30:25.208Z,99210.41
2023-01-12T22:32:55.595Z,99179.09
2023-01-12T22:35:26.406Z,99200.34
2023-01-12T22:37:55.656Z,99184.59
2023-01-12T22:40:23.549Z,99154.97
2023-01-12T22:43:08.690Z,99202.50
2023-01-12T22:45:37.643Z,99218.66
2023-01-12T22:48:06.237Z,99183.00
2023-01-12T22:50:35.516Z,99133.53
2023-01-12T22:53:03.691Z,99216.69
2023-01-12T22:55:31.476Z,99227.72
2023-01-12T22:57:59.433Z,99206.47
2023-01-12T23:00:27.531Z,99207.97
2023-01-12T23:03:01.754Z,99066.66
2023-01-12T23:05:33.353Z,99152.22
2023-01-12T23:08:03.290Z,99061.78
2023-01-12T23:10:31.568Z,99210.50
2023-01-12T23:13:17.963Z,99215.91
2023-01-12T23:15:48.778Z,99097.31
2023-01-12T23:18:18.778Z,99206.47
2023-01-12T23:20:47.505Z,99210.25
2023-01-12T23:23:18.640Z,99214.41
2023-01-12T23:25:48.232Z,99200.44
2023-01-12T23:28:16.421Z,99187.25
2023-01-12T23:30:45.177Z,99200.44
2023-01-12T23:33:13.243Z,99190.75
2023-01-12T23:35:43.094Z,99172.03
2023-01-12T23:38:17.135Z,99185.28
2023-01-12T23:40:45.261Z,99090.06
2023-01-12T23:43:13.312Z,99075.66
2023-01-12T23:45:41.413Z,99019.91
2023-01-12T23:48:09.377Z,99169.59
2023-01-12T23:50:37.543Z,99179.53
2023-01-12T23:53:05.495Z,99159.81
2023-01-12T23:55:35.148Z,99159.38
2023-01-12T23:58:03.334Z,99167.00
